createdAt,value
2019-03-29T00:01:02.179Z,14.97
2019-03-29T00:03:31.570Z,15.00
2019-03-29T00:06:00.942Z,14.70
2019-03-29T00:08:30.342Z,14.13
2019-03-29T00:10:59.834Z,14.30
2019-03-29T00:13:29.247Z,15.23
2019-03-29T00:15:59.922Z,14.87
2019-03-29T00:18:31.572Z,16.50
2019-03-29T00:21:00.950Z,16.97
2019-03-29T00:23:30.410Z,16.93
2019-03-29T00:25:59.189Z,17.33
2019-03-29T00:28:28.794Z,16.30
2019-03-29T00:30:58.212Z,15.93
2019-03-29T00:33:27.707Z,16.47
2019-03-29T00:35:57.252Z,15.50
2019-03-29T00:38:26.635Z,16.70
2019-03-29T00:40:56.156Z,18.20
2019-03-29T00:43:25.611Z,17.77
2019-03-29T00:45:55.013Z,18.73
2019-03-29T00:48:24.534Z,16.40
2019-03-29T00:50:53.922Z,18.27
2019-03-29T00:53:23.322Z,18.83
2019-03-29T00:55:52.783Z,18.03
2019-03-29T00:58:22.294Z,18.57
2019-03-29T01:00:56.685Z,18.00
2019-03-29T01:03:26.142Z,17.97
2019-03-29T01:05:55.522Z,18.93
2019-03-29T01:08:25.025Z,18.07
2019-03-29T01:10:54.490Z,17.93
2019-03-29T01:13:24.236Z,18.33
2019-03-29T01:15:54.415Z,19.03
2019-03-29T01:18:23.800Z,17.77
2019-03-29T01:20:53.170Z,18.60
2019-03-29T01:23:23.960Z,17.93
2019-03-29T01:25:53.603Z,17.33
2019-03-29T01:28:23.070Z,17.77
2019-03-29T01:30:52.526Z,17.10
2019-03-29T01:33:21.979Z,16.67
2019-03-29T01:35:51.768Z,17.47
2019-03-29T01:38:23.983Z,17.30
2019-03-29T01:40:52.586Z,17.90
2019-03-29T01:43:21.282Z,18.57
2019-03-29T01:45:50.794Z,18.60
2019-03-29T01:48:20.294Z,19.53
2019-03-29T01:50:49.770Z,17.57
2019-03-29T01:53:19.154Z,17.30
2019-03-29T01:55:48.908Z,18.50
2019-03-29T01:58:18.802Z,18.63
2019-03-29T02:00:48.197Z,18.47
2019-03-29T02:03:17.571Z,17.43
2019-03-29T02:05:47.020Z,18.03
2019-03-29T02:08:16.410Z,17.67
2019-03-29T02:10:45.855Z,18.93
2019-03-29T02:13:15.366Z,18.90
2019-03-29T02:15:44.992Z,19.60
2019-03-29T02:18:14.358Z,20.20
2019-03-29T02:20:44.094Z,20.97
2019-03-29T02:23:13.487Z,19.50
2019-03-29T02:25:43.157Z,19.50
2019-03-29T02:28:12.764Z,20.50
2019-03-29T02:30:43.498Z,18.67
2019-03-29T02:33:13.397Z,20.43
2019-03-29T02:35:42.775Z,20.43
2019-03-29T02:38:12.774Z,19.40
2019-03-29T02:40:42.234Z,20.53
2019-03-29T02:43:11.745Z,20.93
2019-03-29T02:45:41.214Z,20.93
2019-03-29T02:48:10.587Z,20.87
2019-03-29T02:50:40.051Z,22.60
2019-03-29T02:53:09.562Z,22.53
2019-03-29T02:55:38.939Z,21.40
2019-03-29T02:58:08.388Z,21.50
2019-03-29T03:00:37.923Z,22.23
2019-03-29T03:03:07.388Z,22.97
2019-03-29T03:05:36.820Z,22.97
2019-03-29T03:08:06.398Z,24.03
2019-03-29T03:10:35.903Z,24.47
2019-03-29T03:13:05.449Z,22.73
2019-03-29T03:15:34.983Z,24.40
2019-03-29T03:18:04.539Z,25.57
2019-03-29T03:20:33.979Z,25.63
2019-03-29T03:23:03.461Z,26.97
2019-03-29T03:25:32.910Z,26.90
2019-03-29T03:28:02.364Z,26.67
2019-03-29T03:30:32.038Z,26.07
2019-03-29T03:33:01.845Z,26.47
2019-03-29T03:35:31.560Z,24.37
2019-03-29T03:38:01.049Z,25.27
2019-03-29T03:40:30.485Z,25.47
2019-03-29T03:42:59.886Z,23.83
2019-03-29T03:45:29.267Z,24.03
2019-03-29T03:47:58.731Z,23.77
2019-03-29T03:50:36.829Z,24.97
2019-03-29T03:53:06.362Z,23.27
2019-03-29T03:55:37.697Z,24.03
2019-03-29T03:58:06.428Z,25.03
2019-03-29T04:00:45.336Z,24.00
2019-03-29T04:03:14.706Z,24.00
2019-03-29T04:05:46.126Z,25.67
2019-03-29T04:08:15.562Z,23.57
2019-03-29T04:10:45.318Z,24.03
2019-03-29T04:13:14.792Z,24.27
2019-03-29T04:15:44.253Z,25.93
2019-03-29T04:18:16.122Z,24.27
2019-03-29T04:20:44.882Z,25.80
2019-03-29T04:23:14.333Z,25.53
2019-03-29T04:25:43.931Z,23.67
2019-03-29T04:28:13.444Z,24.40
2019-03-29T04:30:42.804Z,23.27
2019-03-29T04:33:12.339Z,24.53
2019-03-29T04:35:41.787Z,24.33
2019-03-29T04:38:11.291Z,25.70
2019-03-29T04:40:40.742Z,27.20
2019-03-29T04:43:10.107Z,25.57
2019-03-29T04:45:39.479Z,25.70
2019-03-29T04:48:09.708Z,26.70
2019-03-29T04:50:39.077Z,26.00
2019-03-29T04:53:08.439Z,26.00
2019-03-29T04:55:37.881Z,26.80
2019-03-29T04:58:07.458Z,26.83
2019-03-29T05:00:37.002Z,27.70
2019-03-29T05:03:06.487Z,26.77
2019-03-29T05:05:35.931Z,27.37
2019-03-29T05:08:05.455Z,27.30
2019-03-29T05:10:35.144Z,25.97
2019-03-29T05:13:04.675Z,27.33
2019-03-29T05:15:34.062Z,29.07
2019-03-29T05:18:03.910Z,25.43
2019-03-29T05:20:33.440Z,28.00
2019-03-29T05:23:02.833Z,27.03
2019-03-29T05:25:32.335Z,27.93
2019-03-29T05:28:01.718Z,27.23
2019-03-29T05:30:31.163Z,28.03
2019-03-29T05:33:00.646Z,26.60
2019-03-29T05:35:30.137Z,29.83
2019-03-29T05:37:59.531Z,27.97
2019-03-29T05:40:34.889Z,27.10
2019-03-29T05:43:00.190Z,28.53
2019-03-29T05:45:29.702Z,27.77
2019-03-29T05:47:59.162Z,26.43
2019-03-29T05:50:28.530Z,30.97
2019-03-29T05:53:16.837Z,28.87
2019-03-29T05:55:48.313Z,29.10
2019-03-29T05:58:17.375Z,29.07
2019-03-29T06:00:46.827Z,28.90
2019-03-29T06:03:16.202Z,29.10
2019-03-29T06:05:45.757Z,28.43
2019-03-29T06:08:15.182Z,28.87
2019-03-29T06:10:49.184Z,29.37
2019-03-29T06:13:15.856Z,29.03
2019-03-29T06:15:45.310Z,28.87
2019-03-29T06:18:14.775Z,27.73
2019-03-29T06:20:44.215Z,26.80
2019-03-29T06:23:13.631Z,25.20
2019-03-29T06:25:43.099Z,27.13
2019-03-29T06:28:12.666Z,26.63
2019-03-29T06:30:42.511Z,27.37
2019-03-29T06:33:12.029Z,27.13
2019-03-29T06:35:43.888Z,25.87
2019-03-29T06:38:13.907Z,25.27
2019-03-29T06:40:43.443Z,26.20
2019-03-29T06:43:12.976Z,24.33
2019-03-29T06:45:48.156Z,24.53
2019-03-29T06:48:13.723Z,24.70
2019-03-29T06:50:43.139Z,24.23
2019-03-29T06:53:12.750Z,22.13
2019-03-29T06:55:42.242Z,23.10
2019-03-29T06:58:11.730Z,21.20
2019-03-29T07:00:41.263Z,23.17
2019-03-29T07:03:10.855Z,21.17
2019-03-29T07:05:40.401Z,19.87
2019-03-29T07:08:09.773Z,20.90
2019-03-29T07:10:39.179Z,20.20
2019-03-29T07:13:08.706Z,21.60
2019-03-29T07:15:38.089Z,20.53
2019-03-29T07:18:07.464Z,19.87
2019-03-29T07:20:36.888Z,20.97
2019-03-29T07:23:06.367Z,20.10
2019-03-29T07:25:35.811Z,18.70
2019-03-29T07:28:05.334Z,18.37
2019-03-29T07:30:34.882Z,19.27
2019-03-29T07:33:04.426Z,19.03
2019-03-29T07:35:33.967Z,19.93
2019-03-29T07:38:03.490Z,18.53
2019-03-29T07:40:33.034Z,18.20
2019-03-29T07:43:02.504Z,19.03
2019-03-29T07:45:31.967Z,17.23
2019-03-29T07:48:01.442Z,18.70
2019-03-29T07:50:30.892Z,18.93
2019-03-29T07:53:00.284Z,18.53
2019-03-29T07:55:29.663Z,17.73
2019-03-29T07:57:59.006Z,17.40
2019-03-29T08:00:28.563Z,19.07
2019-03-29T08:02:58.039Z,18.13
2019-03-29T08:05:27.622Z,16.77
2019-03-29T08:07:57.011Z,17.47
2019-03-29T08:10:31.099Z,18.33
2019-03-29T08:12:57.931Z,17.90
2019-03-29T08:15:27.492Z,18.20
2019-03-29T08:17:56.886Z,17.07
2019-03-29T08:20:40.186Z,18.53
2019-03-29T08:22:57.549Z,18.40
2019-03-29T08:25:26.935Z,18.43
2019-03-29T08:27:56.415Z,18.43
2019-03-29T08:30:25.845Z,16.50
2019-03-29T08:32:55.250Z,18.43
2019-03-29T08:35:24.641Z,15.83
2019-03-29T08:37:54.079Z,15.30
2019-03-29T08:40:23.670Z,14.77
2019-03-29T08:42:53.275Z,14.30
2019-03-29T08:45:22.803Z,14.60
2019-03-29T08:47:52.343Z,14.83
2019-03-29T08:50:21.903Z,13.83
2019-03-29T08:52:51.372Z,14.60
2019-03-29T08:55:20.772Z,14.80
2019-03-29T08:57:50.433Z,16.33
2019-03-29T09:00:30.739Z,15.07
2019-03-29T09:03:00.518Z,14.77
2019-03-29T09:05:30.181Z,13.80
2019-03-29T09:08:00.222Z,13.03
2019-03-29T09:10:29.743Z,13.10
2019-03-29T09:12:59.333Z,13.20
2019-03-29T09:15:28.879Z,13.23
2019-03-29T09:17:59.958Z,13.10
2019-03-29T09:20:29.660Z,12.13
2019-03-29T09:22:59.266Z,11.30
2019-03-29T09:25:28.786Z,12.37
2019-03-29T09:27:58.325Z,12.03
2019-03-29T09:30:27.953Z,13.10
2019-03-29T09:32:57.421Z,12.57
2019-03-29T09:35:26.926Z,12.17
2019-03-29T09:37:56.752Z,13.43
2019-03-29T09:40:26.611Z,13.23
2019-03-29T09:43:07.338Z,12.87
2019-03-29T09:45:27.388Z,12.93
2019-03-29T09:47:56.848Z,13.43
2019-03-29T09:50:26.409Z,12.67
2019-03-29T09:52:55.943Z,13.00
2019-03-29T09:55:25.453Z,13.00
2019-03-29T09:57:54.963Z,14.13
2019-03-29T10:00:24.837Z,12.13
2019-03-29T10:02:54.286Z,12.60
2019-03-29T10:07:54.399Z,11.70
2019-03-29T10:10:23.966Z,12.30
2019-03-29T10:12:53.375Z,11.37
2019-03-29T10:15:22.842Z,11.00
2019-03-29T10:17:54.485Z,11.63
2019-03-29T10:20:25.651Z,10.63
2019-03-29T10:22:55.178Z,10.33
2019-03-29T10:25:24.595Z,10.30
2019-03-29T10:27:54.215Z,9.23
2019-03-29T10:30:51.399Z,9.17
2019-03-29T10:33:20.895Z,10.17
2019-03-29T10:35:52.499Z,11.67
2019-03-29T10:38:21.989Z,11.77
2019-03-29T10:40:51.665Z,11.63
2019-03-29T10:43:21.154Z,11.97
2019-03-29T10:45:50.771Z,9.37
2019-03-29T10:48:20.342Z,8.83
2019-03-29T10:50:49.789Z,10.83
2019-03-29T10:53:19.287Z,11.10
2019-03-29T10:55:48.827Z,10.80
2019-03-29T10:58:18.368Z,9.63
2019-03-29T11:00:51.826Z,10.87
2019-03-29T11:03:21.391Z,11.97
2019-03-29T11:05:50.951Z,12.00
2019-03-29T11:08:20.499Z,11.93
2019-03-29T11:10:50.104Z,10.83
2019-03-29T11:13:19.482Z,11.57
2019-03-29T11:15:48.966Z,11.40
2019-03-29T11:18:18.486Z,10.40
2019-03-29T11:20:48.011Z,10.27
2019-03-29T11:23:17.554Z,11.30
2019-03-29T11:25:48.783Z,11.47
2019-03-29T11:28:18.199Z,10.73
2019-03-29T11:30:47.742Z,11.27
2019-03-29T11:33:17.226Z,11.13
2019-03-29T11:35:46.602Z,11.37
2019-03-29T11:38:15.997Z,11.47
2019-03-29T11:40:45.362Z,10.97
2019-03-29T11:43:26.023Z,10.73
2019-03-29T11:45:46.207Z,11.07
2019-03-29T11:48:15.865Z,11.20
2019-03-29T11:50:45.266Z,11.37
2019-03-29T11:53:14.722Z,10.53
2019-03-29T11:55:44.270Z,9.80
2019-03-29T11:58:13.727Z,10.33
2019-03-29T12:00:43.186Z,10.30
2019-03-29T12:03:13.539Z,10.17
2019-03-29T12:05:43.071Z,10.17
2019-03-29T12:08:12.611Z,9.80
2019-03-29T12:10:42.086Z,10.87
2019-03-29T12:13:12.606Z,11.50
2019-03-29T12:15:51.655Z,10.93
2019-03-29T12:18:25.984Z,9.70
2019-03-29T12:20:55.707Z,10.20
2019-03-29T12:23:29.058Z,11.10
2019-03-29T12:26:02.289Z,9.57
2019-03-29T12:28:51.118Z,9.67
2019-03-29T12:31:21.568Z,9.97
2019-03-29T12:33:51.401Z,10.77
2019-03-29T12:36:21.000Z,9.77
2019-03-29T12:38:53.969Z,9.33
2019-03-29T12:41:24.583Z,10.33
2019-03-29T12:43:56.315Z,9.77
2019-03-29T12:46:25.816Z,8.57
2019-03-29T12:48:55.192Z,9.00
2019-03-29T12:51:24.650Z,8.03
2019-03-29T12:53:54.200Z,9.40
2019-03-29T12:56:23.606Z,8.23
2019-03-29T12:58:53.200Z,8.47
2019-03-29T13:01:23.842Z,8.77
2019-03-29T13:03:53.243Z,7.83
2019-03-29T13:06:23.783Z,9.07
2019-03-29T13:08:53.300Z,8.97
2019-03-29T13:11:23.186Z,8.77
2019-03-29T13:13:52.803Z,8.97
2019-03-29T13:16:22.500Z,7.33
2019-03-29T13:18:53.690Z,8.70
2019-03-29T13:21:23.217Z,8.43
2019-03-29T13:23:54.646Z,8.73
2019-03-29T13:26:24.094Z,8.40
2019-03-29T13:28:53.459Z,8.27
2019-03-29T13:31:24.004Z,9.30
2019-03-29T13:33:53.472Z,9.43
2019-03-29T13:36:22.875Z,8.67
2019-03-29T13:38:52.380Z,7.80
2019-03-29T13:41:22.111Z,9.13
2019-03-29T13:43:51.581Z,10.40
2019-03-29T13:46:21.023Z,8.43
2019-03-29T13:48:50.414Z,9.47
2019-03-29T13:51:20.269Z,9.23
2019-03-29T13:53:49.759Z,10.07
2019-03-29T13:56:19.298Z,9.10
2019-03-29T13:58:48.759Z,9.33
2019-03-29T14:01:18.143Z,10.07
2019-03-29T14:03:47.688Z,10.47
2019-03-29T14:06:17.070Z,10.00
2019-03-29T14:08:46.559Z,10.33
2019-03-29T14:11:16.340Z,10.50
2019-03-29T14:13:45.744Z,10.57
2019-03-29T14:16:15.118Z,9.27
2019-03-29T14:18:44.539Z,10.20
2019-03-29T14:21:13.919Z,8.40
2019-03-29T14:23:43.368Z,9.93
2019-03-29T14:26:16.083Z,10.23
2019-03-29T14:28:44.132Z,10.00
2019-03-29T14:31:13.664Z,9.77
2019-03-29T14:33:43.067Z,10.07
2019-03-29T14:36:12.464Z,9.77
2019-03-29T14:38:42.030Z,9.83
2019-03-29T14:41:11.722Z,10.17
2019-03-29T14:43:41.289Z,9.53
2019-03-29T14:46:10.739Z,8.40
2019-03-29T14:48:40.595Z,9.03
2019-03-29T14:51:10.069Z,9.40
2019-03-29T14:53:39.642Z,8.73
2019-03-29T14:56:09.178Z,7.97
2019-03-29T14:58:38.567Z,8.17
2019-03-29T15:01:08.128Z,7.93
2019-03-29T15:03:37.502Z,7.20
2019-03-29T15:06:06.963Z,8.03
2019-03-29T15:08:36.505Z,7.97
2019-03-29T15:11:05.557Z,8.47
2019-03-29T15:13:35.033Z,8.57
2019-03-29T15:16:04.530Z,8.17
2019-03-29T15:18:34.049Z,8.33
2019-03-29T15:21:03.572Z,8.17
2019-03-29T15:23:32.931Z,7.60
2019-03-29T15:26:02.396Z,7.90
2019-03-29T15:28:31.890Z,7.97
2019-03-29T15:31:01.305Z,8.63
2019-03-29T15:33:30.851Z,7.37
2019-03-29T15:36:00.327Z,8.40
2019-03-29T15:38:29.903Z,8.10
2019-03-29T15:40:59.372Z,7.83
2019-03-29T15:43:29.254Z,8.03
2019-03-29T15:45:58.745Z,8.23
2019-03-29T15:48:28.268Z,8.13
2019-03-29T15:50:57.807Z,7.60
2019-03-29T15:53:27.282Z,8.37
2019-03-29T15:55:56.739Z,8.30
2019-03-29T15:58:26.148Z,7.17
2019-03-29T16:00:55.653Z,8.17
2019-03-29T16:03:25.074Z,9.37
2019-03-29T16:05:54.516Z,8.93
2019-03-29T16:08:23.973Z,8.93
2019-03-29T16:10:53.432Z,8.10
2019-03-29T16:13:22.938Z,8.07
2019-03-29T16:15:52.403Z,9.03
2019-03-29T16:18:21.786Z,8.27
2019-03-29T16:20:51.297Z,10.00
2019-03-29T16:23:20.795Z,8.40
2019-03-29T16:25:50.250Z,8.93
2019-03-29T16:28:19.654Z,9.27
2019-03-29T16:30:49.201Z,8.93
2019-03-29T16:33:18.606Z,8.80
2019-03-29T16:35:48.083Z,8.90
2019-03-29T16:38:17.534Z,8.77
2019-03-29T16:40:46.998Z,8.80
2019-03-29T16:43:16.408Z,8.80
2019-03-29T16:45:48.048Z,9.17
2019-03-29T16:48:19.749Z,8.90
2019-03-29T16:50:49.295Z,8.57
2019-03-29T16:53:18.903Z,8.87
2019-03-29T16:55:48.315Z,9.33
2019-03-29T16:58:18.150Z,7.97
2019-03-29T17:00:47.641Z,9.00
2019-03-29T17:03:17.238Z,9.40
2019-03-29T17:05:46.775Z,9.17
2019-03-29T17:08:16.373Z,10.50
2019-03-29T17:10:45.858Z,10.07
2019-03-29T17:13:15.234Z,10.20
2019-03-29T17:15:44.702Z,10.20
2019-03-29T17:18:14.163Z,9.53
2019-03-29T17:20:43.643Z,8.50
2019-03-29T17:23:13.185Z,9.50
2019-03-29T17:25:42.690Z,8.93
2019-03-29T17:28:12.231Z,8.97
2019-03-29T17:30:46.059Z,9.10
2019-03-29T17:33:15.418Z,8.13
2019-03-29T17:35:44.883Z,9.67
2019-03-29T17:38:14.261Z,9.13
2019-03-29T17:40:43.715Z,9.60
2019-03-29T17:43:13.294Z,8.87
2019-03-29T17:45:42.788Z,9.93
2019-03-29T17:48:12.342Z,10.17
2019-03-29T17:50:41.894Z,10.00
2019-03-29T17:53:11.439Z,9.33
2019-03-29T17:55:40.867Z,12.40
2019-03-29T17:58:10.250Z,16.27
2019-03-29T18:00:39.737Z,12.03
2019-03-29T18:03:09.130Z,12.60
2019-03-29T18:05:38.687Z,14.23
2019-03-29T18:08:08.084Z,14.17
2019-03-29T18:10:37.587Z,15.80
2019-03-29T18:13:07.052Z,16.70
2019-03-29T18:15:36.611Z,15.63
2019-03-29T18:18:06.102Z,11.67
2019-03-29T18:20:35.745Z,12.10
2019-03-29T18:23:05.214Z,15.57
2019-03-29T18:25:34.897Z,12.25
2019-03-29T18:28:04.463Z,10.30
2019-03-29T18:30:36.971Z,9.75
2019-03-29T18:33:06.888Z,10.63
2019-03-29T18:35:36.525Z,9.13
2019-03-29T18:38:06.064Z,9.37
2019-03-29T18:40:34.827Z,9.17
2019-03-29T18:43:04.474Z,9.10
2019-03-29T18:45:34.208Z,7.70
2019-03-29T18:48:03.803Z,7.80
2019-03-29T18:50:33.430Z,8.70
2019-03-29T18:53:02.981Z,9.03
2019-03-29T18:55:32.607Z,8.07
2019-03-29T18:58:05.668Z,9.00
2019-03-29T19:00:34.361Z,8.63
2019-03-29T19:03:04.367Z,9.73
2019-03-29T19:05:34.350Z,10.23
2019-03-29T19:08:03.966Z,10.83
2019-03-29T19:10:33.474Z,10.10
2019-03-29T19:13:03.071Z,9.13
2019-03-29T19:15:32.548Z,8.90
2019-03-29T19:18:01.976Z,8.90
2019-03-29T19:20:31.503Z,9.33
2019-03-29T19:23:01.042Z,9.73
2019-03-29T19:25:30.562Z,9.77
2019-03-29T19:28:00.146Z,10.03
2019-03-29T19:30:29.771Z,9.50
2019-03-29T19:32:59.278Z,10.00
2019-03-29T19:35:29.008Z,9.87
2019-03-29T19:37:58.542Z,10.23
2019-03-29T19:40:27.983Z,9.60
2019-03-29T19:42:57.519Z,10.53
2019-03-29T19:45:27.124Z,10.20
2019-03-29T19:47:56.597Z,10.37
2019-03-29T19:50:27.010Z,10.30
2019-03-29T19:52:56.470Z,9.50
2019-03-29T19:55:26.083Z,11.10
2019-03-29T19:57:56.907Z,9.53
2019-03-29T20:00:40.695Z,10.43
2019-03-29T20:03:10.677Z,10.07
2019-03-29T20:05:41.328Z,12.90
2019-03-29T20:08:10.972Z,10.80
2019-03-29T20:10:40.687Z,10.83
2019-03-29T20:13:10.302Z,10.90
2019-03-29T20:15:39.941Z,11.60
2019-03-29T20:18:09.546Z,10.73
2019-03-29T20:20:39.160Z,13.18
2019-03-29T20:23:08.730Z,10.77
2019-03-29T20:25:38.299Z,12.60
2019-03-29T20:28:07.836Z,12.03
2019-03-29T20:30:37.396Z,11.57
2019-03-29T20:33:07.051Z,11.70
2019-03-29T20:35:36.939Z,11.80
2019-03-29T20:38:06.418Z,12.00
2019-03-29T20:40:36.800Z,12.77
2019-03-29T20:43:06.402Z,13.00
2019-03-29T20:45:35.874Z,13.23
2019-03-29T20:48:04.766Z,12.43
2019-03-29T20:50:33.654Z,12.97
2019-03-29T20:53:02.503Z,13.87
2019-03-29T20:55:31.290Z,13.97
2019-03-29T20:58:01.022Z,13.70
2019-03-29T21:00:29.874Z,13.43
2019-03-29T21:02:58.591Z,13.83
2019-03-29T21:05:27.365Z,14.30
2019-03-29T21:07:56.181Z,13.80
2019-03-29T21:10:24.964Z,15.00
2019-03-29T21:12:53.748Z,14.43
2019-03-29T21:15:23.670Z,15.30
2019-03-29T21:17:57.489Z,15.50
2019-03-29T21:20:22.966Z,15.03
2019-03-29T21:22:51.850Z,15.27
2019-03-29T21:25:20.594Z,15.43
2019-03-29T21:27:49.398Z,16.47
2019-03-29T21:30:18.160Z,14.90
2019-03-29T21:32:47.716Z,15.60
2019-03-29T21:35:16.501Z,15.83
2019-03-29T21:37:45.314Z,14.93
2019-03-29T21:40:14.375Z,14.80
2019-03-29T21:42:43.178Z,15.70
2019-03-29T21:45:12.088Z,15.80
2019-03-29T21:47:40.726Z,20.10
2019-03-29T21:50:11.494Z,18.43
2019-03-29T21:52:40.189Z,34.33
2019-03-29T21:55:08.916Z,26.83
2019-03-29T21:57:37.703Z,21.77
2019-03-29T22:00:07.447Z,18.03
2019-03-29T22:02:36.254Z,17.97
2019-03-29T22:05:05.218Z,18.98
2019-03-29T22:07:33.955Z,17.47
2019-03-29T22:10:03.893Z,18.40
2019-03-29T22:12:38.360Z,18.60
2019-03-29T22:15:08.460Z,16.97
2019-03-29T22:17:39.999Z,18.00
2019-03-29T22:20:12.111Z,17.20
2019-03-29T22:22:40.822Z,18.27
2019-03-29T22:25:09.886Z,20.30
2019-03-29T22:27:38.729Z,18.97
2019-03-29T22:30:09.443Z,18.80
2019-03-29T22:32:39.543Z,20.03
2019-03-29T22:35:08.436Z,25.30
2019-03-29T22:37:37.287Z,27.77
2019-03-29T22:40:07.735Z,26.37
2019-03-29T22:42:36.551Z,27.93
2019-03-29T22:45:06.290Z,26.63
2019-03-29T22:47:35.256Z,24.07
2019-03-29T22:50:04.134Z,23.13
2019-03-29T22:52:32.867Z,24.30
2019-03-29T22:55:01.515Z,23.90
2019-03-29T22:57:30.146Z,21.57
2019-03-29T22:59:58.935Z,23.37
2019-03-29T23:02:27.730Z,24.77
2019-03-29T23:04:56.358Z,24.47
2019-03-29T23:07:25.006Z,25.03
2019-03-29T23:09:53.659Z,23.00
2019-03-29T23:12:22.407Z,22.03
2019-03-29T23:14:51.058Z,22.43
2019-03-29T23:17:19.791Z,22.60
2019-03-29T23:19:48.447Z,21.43
2019-03-29T23:22:17.175Z,21.00
2019-03-29T23:24:45.931Z,22.53
2019-03-29T23:27:14.681Z,22.27
2019-03-29T23:29:43.303Z,21.63
2019-03-29T23:32:11.991Z,22.67
2019-03-29T23:34:40.866Z,22.13
2019-03-29T23:37:09.511Z,21.87
2019-03-29T23:39:38.367Z,22.03
2019-03-29T23:42:07.091Z,21.90
2019-03-29T23:44:35.780Z,21.73
2019-03-29T23:47:04.491Z,22.53
2019-03-29T23:49:33.391Z,22.27
2019-03-29T23:52:02.111Z,21.80
2019-03-29T23:54:30.812Z,22.23
2019-03-29T23:56:59.459Z,22.03
2019-03-29T23:59:28.177Z,21.60
